Mandoudi — SV3198 — position and weather

sailwx.info

Track history (hours):
 
Tides and Currents Weather Stations Pressure Air Temp Water Temp Dewpoint Dewpoint Depression Visibility Wind Speed Wind Dir Waves Ship Positions

Mandoudi

Last reported at 2015-Aug-02 01:33 UTC. Time now 2015-Aug-02 02:19 UTC.
Position N 37°58' E 023°37'.

Length 60 m; draft 4.6 m.

Type: Ship (hazmat cat A). MMSI: 237470200.

Date/timePositionNaut miles runAvg speedWind from/ knotsBaromVisibWave heightAir tempDewpointWater temp
2015-Aug-02 01:33N 37°58' E 023°37'0 0.0
2015-Aug-02 00:33N 37°58' E 023°37'0 0.0
2015-Aug-01 23:33N 37°58' E 023°37'0 0.0
2015-Aug-01 22:33N 37°58' E 023°37'0 0.0
2015-Aug-01 21:33N 37°58' E 023°37'0 0.0
2015-Aug-01 20:33N 37°58' E 023°37'0 0.0
2015-Aug-01 19:33N 37°58' E 023°37'0 0.0
2015-Aug-01 18:33N 37°58' E 023°37'3 2.8
2015-Aug-01 17:33N 37°57' E 023°33'5 5.1
2015-Aug-01 16:33N 38°02' E 023°31'0 0.0
2015-Aug-01 15:33N 38°02' E 023°31'0 0.0
2015-Aug-01 14:33N 38°02' E 023°31'0 0.0
2015-Aug-01 13:31N 38°02' E 023°31'0 0.0
2015-Aug-01 12:32N 38°02' E 023°31'0 0.0
2015-Aug-01 11:33N 38°02' E 023°31'0 0.0
2015-Aug-01 10:33N 38°02' E 023°31'2 2.1
2015-Aug-01 09:33N 38°00' E 023°32'6 6.0
2015-Aug-01 08:33N 37°56' E 023°38'0 0.0
2015-Aug-01 07:33N 37°56' E 023°38'0 0.0
2015-Aug-01 06:33N 37°56' E 023°38'0 0.0
2015-Aug-01 05:33N 37°56' E 023°38'1 1.5
2015-Aug-01 04:33N 37°58' E 023°37'0 0.0
2015-Aug-01 03:33N 37°58' E 023°37'0 0.0
2015-Aug-01 02:33N 37°58' E 023°37'0 0.0
2015-Aug-01 01:33N 37°58' E 023°37'0 0.0
2015-Aug-01 00:33N 37°58' E 023°37'0 0.0
2015-Jul-31 23:33N 37°58' E 023°37'0 0.0
2015-Jul-31 22:33N 37°58' E 023°37'0 0.0
2015-Jul-31 21:33N 37°58' E 023°37'0 0.0
2015-Jul-31 20:33N 37°58' E 023°37'0 0.0
2015-Jul-31 19:33N 37°58' E 023°37'1 1.4
2015-Jul-31 18:33N 37°57' E 023°38'0 0.0
2015-Jul-31 17:33N 37°57' E 023°38'0 0.0
2015-Jul-31 16:33N 37°57' E 023°38'4 4.1
2015-Jul-31 15:33N 37°57' E 023°33'4 4.0
2015-Jul-31 14:32N 38°02' E 023°32'0 0.0
2015-Jul-31 13:31N 38°02' E 023°32'1 1.4
2015-Jul-31 12:33N 38°02' E 023°31'0 0.0
2015-Jul-31 11:33N 38°02' E 023°31'0 0.0
2015-Jul-31 10:33N 38°02' E 023°31'0 0.0
2015-Jul-31 09:33N 38°02' E 023°31'0 0.0
2015-Jul-31 08:33N 38°02' E 023°31'0 0.0
2015-Jul-31 07:33N 38°02' E 023°31'0 0.0
2015-Jul-31 06:33N 38°02' E 023°31'5 4.7
2015-Jul-31 05:33N 37°58' E 023°33'4 4.4
2015-Jul-31 04:33N 37°57' E 023°38'0 0.0
2015-Jul-31 03:33N 37°57' E 023°38'0 0.0
2015-Jul-31 02:33N 37°57' E 023°38'2 2.0
2015-Jul-31 01:33N 37°57' E 023°36'1 0.9
2015-Jul-31 00:33N 37°58' E 023°37'0 0.0
2015-Jul-30 23:33N 37°58' E 023°37'0 0.0
2015-Jul-30 22:33N 37°58' E 023°37'0 0.0
2015-Jul-30 21:33N 37°58' E 023°37'0 0.0
2015-Jul-30 20:33N 37°58' E 023°37'0 0.0
2015-Jul-30 19:33N 37°58' E 023°37'0 0.0
2015-Jul-30 18:33N 37°58' E 023°37'0 0.0
2015-Jul-30 17:33N 37°58' E 023°37'0 0.0
2015-Jul-30 16:33N 37°58' E 023°37'0 0.0
2015-Jul-30 15:33N 37°58' E 023°37'0 0.0
2015-Jul-30 14:33N 37°58' E 023°37'0 0.0
2015-Jul-30 13:33N 37°58' E 023°37'0 0.0
2015-Jul-30 12:33N 37°58' E 023°37'0 0.0
2015-Jul-30 11:33N 37°58' E 023°37'1 1.4
2015-Jul-30 10:34N 37°57' E 023°38'0 0.0
2015-Jul-30 09:34N 37°57' E 023°38'0 0.0
2015-Jul-30 08:33N 37°57' E 023°38'0 0.0
2015-Jul-30 07:33N 37°57' E 023°38'0 0.0
2015-Jul-30 06:33N 37°57' E 023°38'0 0.0
2015-Jul-30 05:33N 37°57' E 023°38'1 1.4
2015-Jul-30 04:34N 37°58' E 023°37'0 0.0
2015-Jul-30 03:33N 37°58' E 023°37'0 0.0
2015-Jul-30 02:33N 37°58' E 023°37'0 0.0
2015-Jul-30 01:33N 37°58' E 023°37'0 0.0
2015-Jul-30 00:33N 37°58' E 023°37'0 0.0
2015-Jul-29 23:34N 37°58' E 023°37'0 0.0
2015-Jul-29 22:34N 37°58' E 023°37'0 0.0
2015-Jul-29 21:33N 37°58' E 023°37'0 0.0
2015-Jul-29 20:34N 37°58' E 023°37'0 0.0
2015-Jul-29 19:34N 37°58' E 023°37'0 0.0
2015-Jul-29 18:34N 37°58' E 023°37'0 0.0
2015-Jul-29 17:33N 37°58' E 023°37'0 0.0
2015-Jul-29 16:33N 37°58' E 023°37'2 2.0
2015-Jul-29 15:33N 37°57' E 023°34'5 4.2
2015-Jul-29 14:27N 38°02' E 023°36'0 0.0
2015-Jul-29 13:31N 38°02' E 023°36'0 0.0
2015-Jul-29 12:31N 38°02' E 023°36'0 0.0
2015-Jul-29 11:33N 38°02' E 023°36'0 0.0
2015-Jul-29 10:29N 38°02' E 023°36'5 4.9
2015-Jul-29 09:33N 37°57' E 023°34'3 3.4
2015-Jul-29 08:34N 37°57' E 023°38'0 0.0
2015-Jul-29 07:33N 37°57' E 023°38'0 0.0
2015-Jul-29 06:33N 37°57' E 023°38'0 0.0
2015-Jul-29 05:34N 37°57' E 023°38'0 0.0
2015-Jul-29 04:33N 37°57' E 023°38'0 0.1
2015-Jul-29 03:33N 37°57' E 023°38'0 0.0
2015-Jul-29 02:34N 37°57' E 023°38'1 1.1
2015-Jul-29 01:34N 37°56' E 023°37'1 1.2
2015-Jul-29 00:33N 37°58' E 023°37'0 0.0
2015-Jul-28 23:34N 37°58' E 023°37'0 0.0
2015-Jul-28 22:33N 37°58' E 023°37'0 0.0
2015-Jul-28 21:33N 37°58' E 023°37'0 0.0
2015-Jul-28 20:33N 37°58' E 023°37'0 0.0
2015-Jul-28 19:34N 37°58' E 023°37'0 0.0
2015-Jul-28 18:33N 37°58' E 023°37'0 0.0
2015-Jul-28 17:33N 37°58' E 023°37'0 0.0
2015-Jul-28 16:34N 37°58' E 023°37'0 0.0
2015-Jul-28 15:34N 37°58' E 023°37'0 0.0
2015-Jul-28 14:34N 37°58' E 023°37'0 0.0
2015-Jul-28 13:33N 37°58' E 023°37'0 0.0
2015-Jul-28 12:33N 37°58' E 023°37'0 0.0
2015-Jul-28 11:33N 37°58' E 023°37'0 0.0
2015-Jul-28 10:33N 37°58' E 023°37'0 0.0
2015-Jul-28 09:33N 37°58' E 023°37'0 0.0
2015-Jul-28 08:33N 37°58' E 023°37'0 0.0
2015-Jul-28 07:33N 37°58' E 023°37'0 0.0
2015-Jul-28 06:33N 37°58' E 023°37'0 0.0
2015-Jul-28 05:33N 37°58' E 023°37'0 0.0
2015-Jul-28 04:33N 37°58' E 023°37'0 0.0
2015-Jul-28 03:33N 37°58' E 023°37'0 0.0
2015-Jul-28 02:33N 37°58' E 023°37'0 0.0
2015-Jul-28 01:33N 37°58' E 023°37'0 0.0
2015-Jul-28 00:33N 37°58' E 023°37'0 0.0
2015-Jul-27 23:33N 37°58' E 023°37'0 0.0
2015-Jul-27 22:33N 37°58' E 023°37'0 0.0
2015-Jul-27 21:33N 37°58' E 023°37'0 0.0
2015-Jul-27 20:33N 37°58' E 023°37'0 0.0
2015-Jul-27 19:33N 37°58' E 023°37'0 0.0
2015-Jul-27 18:33N 37°58' E 023°37'0 0.0
2015-Jul-27 17:33N 37°58' E 023°37'1 1.0
2015-Jul-27 16:33N 37°57' E 023°36'6 6.4
2015-Jul-27 15:33N 38°02' E 023°31'0 0.0
2015-Jul-27 14:33N 38°02' E 023°31'0 0.0
2015-Jul-27 13:33N 38°02' E 023°31'0 0.0
2015-Jul-27 12:33N 38°02' E 023°31'0 0.0
2015-Jul-27 11:31N 38°02' E 023°31'0 0.0
2015-Jul-27 10:31N 38°02' E 023°31'0 0.0
2015-Jul-27 09:33N 38°02' E 023°31'5 5.5
2015-Jul-27 08:33N 37°57' E 023°34'3 3.4
2015-Jul-27 07:33N 37°57' E 023°38'0 0.0
2015-Jul-27 06:33N 37°57' E 023°38'0 0.0
2015-Jul-27 05:32N 37°57' E 023°38'0 0.2
2015-Jul-27 04:33N 37°57' E 023°38'0 0.0
2015-Jul-27 03:34N 37°57' E 023°38'0 0.0
2015-Jul-27 02:34N 37°57' E 023°38'0 0.0
2015-Jul-27 01:33N 37°57' E 023°38'2 1.6
2015-Jul-27 00:33N 37°58' E 023°37'0 0.0
2015-Jul-26 23:34N 37°58' E 023°37'0 0.0
2015-Jul-26 22:33N 37°58' E 023°37'0 0.0
2015-Jul-26 21:34N 37°58' E 023°37'0 0.0
2015-Jul-26 20:33N 37°58' E 023°37'0 0.0
2015-Jul-26 19:33N 37°58' E 023°37'0 0.0
2015-Jul-26 18:33N 37°58' E 023°37'0 0.0
2015-Jul-26 17:34N 37°58' E 023°37'0 0.0
2015-Jul-26 16:33N 37°58' E 023°37'0 0.0
2015-Jul-26 15:33N 37°58' E 023°37'0 0.0
2015-Jul-26 14:33N 37°58' E 023°37'0 0.0
2015-Jul-26 13:33N 37°58' E 023°37'0 0.0
2015-Jul-26 12:33N 37°58' E 023°37'0 0.0
2015-Jul-26 11:33N 37°58' E 023°37'0 0.0
2015-Jul-26 10:34N 37°58' E 023°37'5 5.5
2015-Jul-26 09:33N 38°01' E 023°32'0 0.0
2015-Jul-26 08:34N 38°01' E 023°32'0 0.1
2015-Jul-26 07:33N 38°01' E 023°32'1 0.6
2015-Jul-26 06:34N 38°02' E 023°32'2 2.3
2015-Jul-26 05:33N 37°60' E 023°33'4 3.9
2015-Jul-26 04:34N 37°58' E 023°37'0 0.0
2015-Jul-25 22:28N 37°58' E 023°37'0 0.0
2015-Jul-25 21:33N 37°58' E 023°37'0 0.0
2015-Jul-25 20:33N 37°58' E 023°37'6 5.9
2015-Jul-25 19:33N 38°02' E 023°31'1 0.8
2015-Jul-25 18:33N 38°02' E 023°31'0 0.0
2015-Jul-25 17:33N 38°02' E 023°31'0 0.0
2015-Jul-25 16:33N 38°02' E 023°31'0 0.3
2015-Jul-25 15:33N 38°02' E 023°31'8 7.5
2015-Jul-25 14:33N 37°55' E 023°34'2 2.3
2015-Jul-25 13:33N 37°53' E 023°32'0 0.0
2015-Jul-25 12:33N 37°53' E 023°32'0 0.0
2015-Jul-25 11:33N 37°53' E 023°32'1 0.6
2015-Jul-25 10:33N 37°52' E 023°33'0 0.0
2015-Jul-25 09:33N 37°52' E 023°33'0 0.0
2015-Jul-25 08:33N 37°52' E 023°33'0 0.0
2015-Jul-25 07:33N 37°52' E 023°33'4 3.8
2015-Jul-25 06:33N 37°56' E 023°34'3 2.5
2015-Jul-25 05:33N 37°58' E 023°37'0 0.0
2015-Jul-25 04:33N 37°58' E 023°37'0 0.0
2015-Jul-25 03:33N 37°58' E 023°37'0 0.0
2015-Jul-25 02:33N 37°58' E 023°37'0 0.0
2015-Jul-25 01:33N 37°58' E 023°37'0 0.0
2015-Jul-25 00:33N 37°58' E 023°37'0 0.0
2015-Jul-24 23:33N 37°58' E 023°37'0 0.0
2015-Jul-24 22:33N 37°58' E 023°37'0 0.0
2015-Jul-24 21:33N 37°58' E 023°37'0 0.1
2015-Jul-24 20:33N 37°57' E 023°37'5 5.1
2015-Jul-24 19:33N 38°01' E 023°32'0 0.0
2015-Jul-24 18:30N 38°01' E 023°32'0 0.4
2015-Jul-24 17:33N 38°01' E 023°32'0 0.5
2015-Jul-24 16:32N 38°02' E 023°31'0 0.0
2015-Jul-24 15:29N 38°02' E 023°31'0 0.0
2015-Jul-24 14:33N 38°02' E 023°31'0 0.0
2015-Jul-24 13:33N 38°02' E 023°31'0 0.0
2015-Jul-24 12:33N 38°02' E 023°31'0 0.0
2015-Jul-24 11:33N 38°02' E 023°31'1 0.7
2015-Jul-24 10:33N 38°02' E 023°31'0 0.0
2015-Jul-24 09:33N 38°02' E 023°31'0 0.0
2015-Jul-24 08:33N 38°02' E 023°31'0 0.0
2015-Jul-24 07:33N 38°02' E 023°31'0 0.2
2015-Jul-24 06:33N 38°02' E 023°31'0 0.3
2015-Jul-24 05:29N 38°02' E 023°31'5 5.5
2015-Jul-24 04:33N 37°57' E 023°34'3 3.3
2015-Jul-24 03:33N 37°57' E 023°38'0 0.0
2015-Jul-24 02:33N 37°57' E 023°38'2 1.7
2015-Jul-24 01:33N 37°57' E 023°36'1 0.9
2015-Jul-24 00:33N 37°58' E 023°37'0 0.0
2015-Jul-23 23:33N 37°58' E 023°37'0 0.0
2015-Jul-23 22:33N 37°58' E 023°37'0 0.0
2015-Jul-23 21:33N 37°58' E 023°37'0 0.0
2015-Jul-23 20:33N 37°58' E 023°37'0 0.0
2015-Jul-23 19:33N 37°58' E 023°37'0 0.0
2015-Jul-23 18:33N 37°58' E 023°37'0 0.0
2015-Jul-23 17:33N 37°58' E 023°37'0 0.0
2015-Jul-23 16:33N 37°58' E 023°37'0 0.0
2015-Jul-23 15:33N 37°58' E 023°37'1 0.7
2015-Jul-23 14:33N 37°57' E 023°36'5 4.8
2015-Jul-23 13:31N 38°01' E 023°32'0 0.0
2015-Jul-23 12:33N 38°01' E 023°32'0 0.1
2015-Jul-23 11:33N 38°01' E 023°32'6 6.4
2015-Jul-23 10:33N 37°56' E 023°38'1 0.6
2015-Jul-23 09:33N 37°57' E 023°38'0 0.0
2015-Jul-23 08:33N 37°57' E 023°38'0 0.1
2015-Jul-23 07:33N 37°57' E 023°38'0 0.0
2015-Jul-23 06:33N 37°57' E 023°38'1 0.6
2015-Jul-23 05:33N 37°56' E 023°38'1 1.3
2015-Jul-23 04:33N 37°58' E 023°37'0 0.0
2015-Jul-23 03:33N 37°58' E 023°37'0 0.0
2015-Jul-23 02:33N 37°58' E 023°37'  
Track history (hours):
 
Tides and Currents Weather Stations Pressure Air Temp Water Temp Dewpoint Dewpoint Depression Visibility Wind Speed Wind Dir Waves Ship Positions

Mandoudi

Last reported at 2015-Aug-02 01:33 UTC. Time now 2015-Aug-02 02:19 UTC.
Position N 37°58' E 023°37'.

Length 60 m; draft 4.6 m.

Type: Ship (hazmat cat A). MMSI: 237470200.

Date/timePositionNaut miles runAvg speedWind from/ knotsBaromVisibWave heightAir tempDewpointWater temp
2015-Aug-02 01:33N 37°58' E 023°37'0 0.0
2015-Aug-02 00:33N 37°58' E 023°37'0 0.0
2015-Aug-01 23:33N 37°58' E 023°37'0 0.0
2015-Aug-01 22:33N 37°58' E 023°37'0 0.0
2015-Aug-01 21:33N 37°58' E 023°37'0 0.0
2015-Aug-01 20:33N 37°58' E 023°37'0 0.0
2015-Aug-01 19:33N 37°58' E 023°37'0 0.0
2015-Aug-01 18:33N 37°58' E 023°37'3 2.8
2015-Aug-01 17:33N 37°57' E 023°33'5 5.1
2015-Aug-01 16:33N 38°02' E 023°31'0 0.0
2015-Aug-01 15:33N 38°02' E 023°31'0 0.0
2015-Aug-01 14:33N 38°02' E 023°31'0 0.0
2015-Aug-01 13:31N 38°02' E 023°31'0 0.0
2015-Aug-01 12:32N 38°02' E 023°31'0 0.0
2015-Aug-01 11:33N 38°02' E 023°31'0 0.0
2015-Aug-01 10:33N 38°02' E 023°31'2 2.1
2015-Aug-01 09:33N 38°00' E 023°32'6 6.0
2015-Aug-01 08:33N 37°56' E 023°38'0 0.0
2015-Aug-01 07:33N 37°56' E 023°38'0 0.0
2015-Aug-01 06:33N 37°56' E 023°38'0 0.0
2015-Aug-01 05:33N 37°56' E 023°38'1 1.5
2015-Aug-01 04:33N 37°58' E 023°37'0 0.0
2015-Aug-01 03:33N 37°58' E 023°37'0 0.0
2015-Aug-01 02:33N 37°58' E 023°37'0 0.0
2015-Aug-01 01:33N 37°58' E 023°37'0 0.0
2015-Aug-01 00:33N 37°58' E 023°37'0 0.0
2015-Jul-31 23:33N 37°58' E 023°37'0 0.0
2015-Jul-31 22:33N 37°58' E 023°37'0 0.0
2015-Jul-31 21:33N 37°58' E 023°37'0 0.0
2015-Jul-31 20:33N 37°58' E 023°37'0 0.0
2015-Jul-31 19:33N 37°58' E 023°37'1 1.4
2015-Jul-31 18:33N 37°57' E 023°38'0 0.0
2015-Jul-31 17:33N 37°57' E 023°38'0 0.0
2015-Jul-31 16:33N 37°57' E 023°38'4 4.1
2015-Jul-31 15:33N 37°57' E 023°33'4 4.0
2015-Jul-31 14:32N 38°02' E 023°32'0 0.0
2015-Jul-31 13:31N 38°02' E 023°32'1 1.4
2015-Jul-31 12:33N 38°02' E 023°31'0 0.0
2015-Jul-31 11:33N 38°02' E 023°31'0 0.0
2015-Jul-31 10:33N 38°02' E 023°31'0 0.0
2015-Jul-31 09:33N 38°02' E 023°31'0 0.0
2015-Jul-31 08:33N 38°02' E 023°31'0 0.0
2015-Jul-31 07:33N 38°02' E 023°31'0 0.0
2015-Jul-31 06:33N 38°02' E 023°31'5 4.7
2015-Jul-31 05:33N 37°58' E 023°33'4 4.4
2015-Jul-31 04:33N 37°57' E 023°38'0 0.0
2015-Jul-31 03:33N 37°57' E 023°38'0 0.0
2015-Jul-31 02:33N 37°57' E 023°38'2 2.0
2015-Jul-31 01:33N 37°57' E 023°36'1 0.9
2015-Jul-31 00:33N 37°58' E 023°37'0 0.0
2015-Jul-30 23:33N 37°58' E 023°37'0 0.0
2015-Jul-30 22:33N 37°58' E 023°37'0 0.0
2015-Jul-30 21:33N 37°58' E 023°37'0 0.0
2015-Jul-30 20:33N 37°58' E 023°37'0 0.0
2015-Jul-30 19:33N 37°58' E 023°37'0 0.0
2015-Jul-30 18:33N 37°58' E 023°37'0 0.0
2015-Jul-30 17:33N 37°58' E 023°37'0 0.0
2015-Jul-30 16:33N 37°58' E 023°37'0 0.0
2015-Jul-30 15:33N 37°58' E 023°37'0 0.0
2015-Jul-30 14:33N 37°58' E 023°37'0 0.0
2015-Jul-30 13:33N 37°58' E 023°37'0 0.0
2015-Jul-30 12:33N 37°58' E 023°37'0 0.0
2015-Jul-30 11:33N 37°58' E 023°37'1 1.4
2015-Jul-30 10:34N 37°57' E 023°38'0 0.0
2015-Jul-30 09:34N 37°57' E 023°38'0 0.0
2015-Jul-30 08:33N 37°57' E 023°38'0 0.0
2015-Jul-30 07:33N 37°57' E 023°38'0 0.0
2015-Jul-30 06:33N 37°57' E 023°38'0 0.0
2015-Jul-30 05:33N 37°57' E 023°38'1 1.4
2015-Jul-30 04:34N 37°58' E 023°37'0 0.0
2015-Jul-30 03:33N 37°58' E 023°37'0 0.0
2015-Jul-30 02:33N 37°58' E 023°37'0 0.0
2015-Jul-30 01:33N 37°58' E 023°37'0 0.0
2015-Jul-30 00:33N 37°58' E 023°37'0 0.0
2015-Jul-29 23:34N 37°58' E 023°37'0 0.0
2015-Jul-29 22:34N 37°58' E 023°37'0 0.0
2015-Jul-29 21:33N 37°58' E 023°37'0 0.0
2015-Jul-29 20:34N 37°58' E 023°37'0 0.0
2015-Jul-29 19:34N 37°58' E 023°37'0 0.0
2015-Jul-29 18:34N 37°58' E 023°37'0 0.0
2015-Jul-29 17:33N 37°58' E 023°37'0 0.0
2015-Jul-29 16:33N 37°58' E 023°37'2 2.0
2015-Jul-29 15:33N 37°57' E 023°34'5 4.2
2015-Jul-29 14:27N 38°02' E 023°36'0 0.0
2015-Jul-29 13:31N 38°02' E 023°36'0 0.0
2015-Jul-29 12:31N 38°02' E 023°36'0 0.0
2015-Jul-29 11:33N 38°02' E 023°36'0 0.0
2015-Jul-29 10:29N 38°02' E 023°36'5 4.9
2015-Jul-29 09:33N 37°57' E 023°34'3 3.4
2015-Jul-29 08:34N 37°57' E 023°38'0 0.0
2015-Jul-29 07:33N 37°57' E 023°38'0 0.0
2015-Jul-29 06:33N 37°57' E 023°38'0 0.0
2015-Jul-29 05:34N 37°57' E 023°38'0 0.0
2015-Jul-29 04:33N 37°57' E 023°38'0 0.1
2015-Jul-29 03:33N 37°57' E 023°38'0 0.0
2015-Jul-29 02:34N 37°57' E 023°38'1 1.1
2015-Jul-29 01:34N 37°56' E 023°37'1 1.2
2015-Jul-29 00:33N 37°58' E 023°37'0 0.0
2015-Jul-28 23:34N 37°58' E 023°37'0 0.0
2015-Jul-28 22:33N 37°58' E 023°37'0 0.0
2015-Jul-28 21:33N 37°58' E 023°37'0 0.0
2015-Jul-28 20:33N 37°58' E 023°37'0 0.0
2015-Jul-28 19:34N 37°58' E 023°37'0 0.0
2015-Jul-28 18:33N 37°58' E 023°37'0 0.0
2015-Jul-28 17:33N 37°58' E 023°37'0 0.0
2015-Jul-28 16:34N 37°58' E 023°37'0 0.0
2015-Jul-28 15:34N 37°58' E 023°37'0 0.0
2015-Jul-28 14:34N 37°58' E 023°37'0 0.0
2015-Jul-28 13:33N 37°58' E 023°37'0 0.0
2015-Jul-28 12:33N 37°58' E 023°37'0 0.0
2015-Jul-28 11:33N 37°58' E 023°37'0 0.0
2015-Jul-28 10:33N 37°58' E 023°37'0 0.0
2015-Jul-28 09:33N 37°58' E 023°37'0 0.0
2015-Jul-28 08:33N 37°58' E 023°37'0 0.0
2015-Jul-28 07:33N 37°58' E 023°37'0 0.0
2015-Jul-28 06:33N 37°58' E 023°37'0 0.0
2015-Jul-28 05:33N 37°58' E 023°37'0 0.0
2015-Jul-28 04:33N 37°58' E 023°37'0 0.0
2015-Jul-28 03:33N 37°58' E 023°37'0 0.0
2015-Jul-28 02:33N 37°58' E 023°37'0 0.0
2015-Jul-28 01:33N 37°58' E 023°37'0 0.0
2015-Jul-28 00:33N 37°58' E 023°37'0 0.0
2015-Jul-27 23:33N 37°58' E 023°37'0 0.0
2015-Jul-27 22:33N 37°58' E 023°37'0 0.0
2015-Jul-27 21:33N 37°58' E 023°37'0 0.0
2015-Jul-27 20:33N 37°58' E 023°37'0 0.0
2015-Jul-27 19:33N 37°58' E 023°37'0 0.0
2015-Jul-27 18:33N 37°58' E 023°37'0 0.0
2015-Jul-27 17:33N 37°58' E 023°37'1 1.0
2015-Jul-27 16:33N 37°57' E 023°36'6 6.4
2015-Jul-27 15:33N 38°02' E 023°31'0 0.0
2015-Jul-27 14:33N 38°02' E 023°31'0 0.0
2015-Jul-27 13:33N 38°02' E 023°31'0 0.0
2015-Jul-27 12:33N 38°02' E 023°31'0 0.0
2015-Jul-27 11:31N 38°02' E 023°31'0 0.0
2015-Jul-27 10:31N 38°02' E 023°31'0 0.0
2015-Jul-27 09:33N 38°02' E 023°31'5 5.5
2015-Jul-27 08:33N 37°57' E 023°34'3 3.4
2015-Jul-27 07:33N 37°57' E 023°38'0 0.0
2015-Jul-27 06:33N 37°57' E 023°38'0 0.0
2015-Jul-27 05:32N 37°57' E 023°38'0 0.2
2015-Jul-27 04:33N 37°57' E 023°38'0 0.0
2015-Jul-27 03:34N 37°57' E 023°38'0 0.0
2015-Jul-27 02:34N 37°57' E 023°38'0 0.0
2015-Jul-27 01:33N 37°57' E 023°38'2 1.6
2015-Jul-27 00:33N 37°58' E 023°37'0 0.0
2015-Jul-26 23:34N 37°58' E 023°37'0 0.0
2015-Jul-26 22:33N 37°58' E 023°37'0 0.0
2015-Jul-26 21:34N 37°58' E 023°37'0 0.0
2015-Jul-26 20:33N 37°58' E 023°37'0 0.0
2015-Jul-26 19:33N 37°58' E 023°37'0 0.0
2015-Jul-26 18:33N 37°58' E 023°37'0 0.0
2015-Jul-26 17:34N 37°58' E 023°37'0 0.0
2015-Jul-26 16:33N 37°58' E 023°37'0 0.0
2015-Jul-26 15:33N 37°58' E 023°37'0 0.0
2015-Jul-26 14:33N 37°58' E 023°37'0 0.0
2015-Jul-26 13:33N 37°58' E 023°37'0 0.0
2015-Jul-26 12:33N 37°58' E 023°37'0 0.0
2015-Jul-26 11:33N 37°58' E 023°37'0 0.0
2015-Jul-26 10:34N 37°58' E 023°37'5 5.5
2015-Jul-26 09:33N 38°01' E 023°32'0 0.0
2015-Jul-26 08:34N 38°01' E 023°32'0 0.1
2015-Jul-26 07:33N 38°01' E 023°32'1 0.6
2015-Jul-26 06:34N 38°02' E 023°32'2 2.3
2015-Jul-26 05:33N 37°60' E 023°33'4 3.9
2015-Jul-26 04:34N 37°58' E 023°37'0 0.0
2015-Jul-25 22:28N 37°58' E 023°37'0 0.0
2015-Jul-25 21:33N 37°58' E 023°37'0 0.0
2015-Jul-25 20:33N 37°58' E 023°37'6 5.9
2015-Jul-25 19:33N 38°02' E 023°31'1 0.8
2015-Jul-25 18:33N 38°02' E 023°31'0 0.0
2015-Jul-25 17:33N 38°02' E 023°31'0 0.0
2015-Jul-25 16:33N 38°02' E 023°31'0 0.3
2015-Jul-25 15:33N 38°02' E 023°31'8 7.5
2015-Jul-25 14:33N 37°55' E 023°34'2 2.3
2015-Jul-25 13:33N 37°53' E 023°32'0 0.0
2015-Jul-25 12:33N 37°53' E 023°32'0 0.0
2015-Jul-25 11:33N 37°53' E 023°32'1 0.6
2015-Jul-25 10:33N 37°52' E 023°33'0 0.0
2015-Jul-25 09:33N 37°52' E 023°33'0 0.0
2015-Jul-25 08:33N 37°52' E 023°33'0 0.0
2015-Jul-25 07:33N 37°52' E 023°33'4 3.8
2015-Jul-25 06:33N 37°56' E 023°34'3 2.5
2015-Jul-25 05:33N 37°58' E 023°37'0 0.0
2015-Jul-25 04:33N 37°58' E 023°37'0 0.0
2015-Jul-25 03:33N 37°58' E 023°37'0 0.0
2015-Jul-25 02:33N 37°58' E 023°37'0 0.0
2015-Jul-25 01:33N 37°58' E 023°37'0 0.0
2015-Jul-25 00:33N 37°58' E 023°37'0 0.0
2015-Jul-24 23:33N 37°58' E 023°37'0 0.0
2015-Jul-24 22:33N 37°58' E 023°37'0 0.0
2015-Jul-24 21:33N 37°58' E 023°37'0 0.1
2015-Jul-24 20:33N 37°57' E 023°37'5 5.1
2015-Jul-24 19:33N 38°01' E 023°32'0 0.0
2015-Jul-24 18:30N 38°01' E 023°32'0 0.4
2015-Jul-24 17:33N 38°01' E 023°32'0 0.5
2015-Jul-24 16:32N 38°02' E 023°31'0 0.0
2015-Jul-24 15:29N 38°02' E 023°31'0 0.0
2015-Jul-24 14:33N 38°02' E 023°31'0 0.0
2015-Jul-24 13:33N 38°02' E 023°31'0 0.0
2015-Jul-24 12:33N 38°02' E 023°31'0 0.0
2015-Jul-24 11:33N 38°02' E 023°31'1 0.7
2015-Jul-24 10:33N 38°02' E 023°31'0 0.0
2015-Jul-24 09:33N 38°02' E 023°31'0 0.0
2015-Jul-24 08:33N 38°02' E 023°31'0 0.0
2015-Jul-24 07:33N 38°02' E 023°31'0 0.2
2015-Jul-24 06:33N 38°02' E 023°31'0 0.3
2015-Jul-24 05:29N 38°02' E 023°31'5 5.5
2015-Jul-24 04:33N 37°57' E 023°34'3 3.3
2015-Jul-24 03:33N 37°57' E 023°38'0 0.0
2015-Jul-24 02:33N 37°57' E 023°38'2 1.7
2015-Jul-24 01:33N 37°57' E 023°36'1 0.9
2015-Jul-24 00:33N 37°58' E 023°37'0 0.0
2015-Jul-23 23:33N 37°58' E 023°37'0 0.0
2015-Jul-23 22:33N 37°58' E 023°37'0 0.0
2015-Jul-23 21:33N 37°58' E 023°37'0 0.0
2015-Jul-23 20:33N 37°58' E 023°37'0 0.0
2015-Jul-23 19:33N 37°58' E 023°37'0 0.0
2015-Jul-23 18:33N 37°58' E 023°37'0 0.0
2015-Jul-23 17:33N 37°58' E 023°37'0 0.0
2015-Jul-23 16:33N 37°58' E 023°37'0 0.0
2015-Jul-23 15:33N 37°58' E 023°37'1 0.7
2015-Jul-23 14:33N 37°57' E 023°36'5 4.8
2015-Jul-23 13:31N 38°01' E 023°32'0 0.0
2015-Jul-23 12:33N 38°01' E 023°32'0 0.1
2015-Jul-23 11:33N 38°01' E 023°32'6 6.4
2015-Jul-23 10:33N 37°56' E 023°38'1 0.6
2015-Jul-23 09:33N 37°57' E 023°38'0 0.0
2015-Jul-23 08:33N 37°57' E 023°38'0 0.1
2015-Jul-23 07:33N 37°57' E 023°38'0 0.0
2015-Jul-23 06:33N 37°57' E 023°38'1 0.6
2015-Jul-23 05:33N 37°56' E 023°38'1 1.3
2015-Jul-23 04:33N 37°58' E 023°37'0 0.0
2015-Jul-23 03:33N 37°58' E 023°37'0 0.0
2015-Jul-23 02:33N 37°58' E 023°37'  

Dump ship's entire track history